createdAt,value
2023-01-13T00:03:07.306Z,56
2023-01-13T00:13:07.416Z,56
2023-01-13T00:23:07.268Z,56
2023-01-13T00:33:07.387Z,56
2023-01-13T00:43:07.246Z,56
2023-01-13T00:53:07.412Z,56
2023-01-13T01:03:07.464Z,56
2023-01-13T01:13:07.381Z,56
2023-01-13T01:23:07.461Z,56
2023-01-13T01:33:07.391Z,56
2023-01-13T01:43:07.461Z,56
2023-01-13T01:53:07.383Z,56
2023-01-13T02:03:07.467Z,56
2023-01-13T02:13:07.370Z,56
2023-01-13T02:23:07.433Z,56
2023-01-13T02:33:07.575Z,56
2023-01-13T02:43:07.458Z,56
2023-01-13T02:53:07.564Z,56
2023-01-13T03:03:07.429Z,56
2023-01-13T03:13:07.589Z,56
2023-01-13T03:23:07.443Z,56
2023-01-13T03:33:07.574Z,56
2023-01-13T03:43:07.431Z,56
2023-01-13T03:53:07.558Z,56
2023-01-13T04:03:07.619Z,56
2023-01-13T04:13:07.600Z,56
2023-01-13T04:23:07.647Z,56
2023-01-13T04:33:07.548Z,56
2023-01-13T04:43:07.620Z,56
2023-01-13T04:53:07.548Z,56
2023-01-13T05:03:07.644Z,56
2023-01-13T05:13:07.763Z,56
2023-01-13T05:23:07.636Z,56
2023-01-13T05:33:07.744Z,56
2023-01-13T05:43:07.614Z,56
2023-01-13T05:53:07.758Z,56
2023-01-13T06:03:07.667Z,56
2023-01-13T06:13:07.740Z,56
2023-01-13T06:23:07.599Z,56
2023-01-13T06:33:07.746Z,56
2023-01-13T06:43:07.627Z,56
2023-01-13T06:53:07.744Z,56
2023-01-13T07:03:07.815Z,56
2023-01-13T07:13:07.726Z,56
2023-01-13T07:23:07.807Z,56
2023-01-13T07:33:07.760Z,56
2023-01-13T07:43:07.801Z,56
2023-01-13T07:53:07.720Z,56
2023-01-13T08:03:07.861Z,56
2023-01-13T08:13:07.917Z,56
2023-01-13T08:23:07.822Z,56.5
2023-01-13T08:33:07.915Z,56.5
2023-01-13T08:43:07.779Z,57.5
2023-01-13T08:53:07.901Z,57
2023-01-13T09:03:07.775Z,56.5
2023-01-13T09:13:07.971Z,56.5
2023-01-13T09:23:10.238Z,62
2023-01-13T09:33:07.906Z,61
2023-01-13T09:43:07.983Z,62
2023-01-13T09:53:07.909Z,66
2023-01-13T10:03:08.056Z,64.5
2023-01-13T10:13:07.986Z,64
2023-01-13T10:23:08.017Z,67
2023-01-13T10:33:07.929Z,67
2023-01-13T10:43:07.998Z,69
2023-01-13T10:53:07.944Z,68.5
2023-01-13T11:03:08.023Z,68.5
2023-01-13T11:13:07.899Z,68.5
2023-01-13T11:23:07.983Z,65.5
2023-01-13T11:33:08.128Z,66
2023-01-13T11:43:08.163Z,66
2023-01-13T11:53:08.134Z,66.5
2023-01-13T12:03:07.998Z,63.5
2023-01-13T12:13:08.095Z,61.5
2023-01-13T12:23:07.980Z,58
2023-01-13T12:33:08.093Z,58
2023-01-13T12:43:08.170Z,56.5
2023-01-13T12:53:08.074Z,55.5
2023-01-13T13:03:08.144Z,54.5
2023-01-13T13:13:08.070Z,54.5
2023-01-13T13:23:08.158Z,54.5
2023-01-13T13:33:08.088Z,54.5
2023-01-13T13:43:08.152Z,56
2023-01-13T13:53:08.063Z,56
2023-01-13T14:03:08.129Z,55.5
2023-01-13T14:13:08.233Z,54.5
2023-01-13T14:23:08.095Z,54.5
2023-01-13T14:33:08.202Z,54.5
2023-01-13T14:43:08.049Z,56
2023-01-13T14:53:08.166Z,56
2023-01-13T15:03:08.293Z,56
2023-01-13T15:13:08.204Z,56
2023-01-13T15:23:08.048Z,56
2023-01-13T15:33:08.169Z,56
2023-01-13T15:43:08.224Z,56
2023-01-13T15:53:08.144Z,56
2023-01-13T16:03:08.243Z,56
2023-01-13T16:13:08.170Z,56
2023-01-13T16:23:08.265Z,56
2023-01-13T16:33:08.177Z,56
2023-01-13T16:43:08.293Z,56
2023-01-13T16:53:08.420Z,56
2023-01-13T17:03:08.338Z,56
2023-01-13T17:13:15.862Z,56
2023-01-13T17:23:08.282Z,56
2023-01-13T17:33:08.400Z,56
2023-01-13T17:43:08.301Z,56
2023-01-13T17:53:08.426Z,56
2023-01-13T18:03:08.275Z,56
2023-01-13T18:13:08.401Z,56
2023-01-13T18:23:08.470Z,56
2023-01-13T18:33:08.419Z,56
2023-01-13T18:43:08.485Z,56
2023-01-13T18:53:08.417Z,56
2023-01-13T19:13:08.686Z,56
2023-01-13T19:23:08.538Z,56
2023-01-13T19:33:08.730Z,56
2023-01-13T19:43:08.714Z,56
2023-01-13T19:53:08.795Z,56
2023-01-13T20:03:08.792Z,56
2023-01-13T20:13:08.763Z,56
2023-01-13T20:23:08.743Z,56
2023-01-13T20:33:08.764Z,56
2023-01-13T20:43:08.545Z,56
2023-01-13T20:53:08.726Z,56
2023-01-13T21:03:08.530Z,56
2023-01-13T21:13:09.203Z,56
2023-01-13T21:23:09.074Z,56
2023-01-13T21:33:08.862Z,56
2023-01-13T21:43:09.255Z,56
2023-01-13T21:53:08.796Z,56
2023-01-13T22:03:09.245Z,56
2023-01-13T22:13:08.791Z,56
2023-01-13T22:23:08.874Z,56
2023-01-13T22:33:08.831Z,56
2023-01-13T22:43:08.847Z,56
2023-01-13T22:53:08.761Z,56
2023-01-13T23:03:08.959Z,56
2023-01-13T23:13:08.790Z,56
2023-01-13T23:23:08.836Z,56
2023-01-13T23:33:08.927Z,56
2023-01-13T23:43:08.789Z,56
2023-01-13T23:53:08.999Z,56
